Terminal Aerodrome Forecast
Issued by NWS Grand Rapids, MI

Current Version | Previous Version | Text Only | Print | Product List | Glossary On
Versions: 1 2 3 4 5 6 7 8 9 10 11 12 13 14 15
342
FTUS43 KGRR 231135
TAFGRR
TAF
KGRR 231135Z 2312/2412 36007KT P6SM -RA OVC004
     FM231400 02004KT 3SM SHRA BR OVC015
     FM231600 06005KT 2SM SHRA BR OVC008
     FM231900 04006KT 1SM +SHRA BR OVC003
     FM240000 31010G20KT 2SM SHRA BR OVC008 WS020/34030KT=

USA.gov is the U.S. government's official web portal to all federal, state and local government web resources and services.